createdAt,value
2022-11-16T00:00:30.764Z,76744.41
2022-11-16T00:02:57.978Z,76742.34
2022-11-16T00:05:28.337Z,76734.13
2022-11-16T00:07:56.275Z,76727.94
2022-11-16T00:10:23.431Z,76721.78
2022-11-16T00:12:52.536Z,76719.72
2022-11-16T00:15:19.743Z,76715.63
2022-11-16T00:17:47.445Z,76715.63
2022-11-16T00:20:14.992Z,76709.44
2022-11-16T00:22:42.251Z,76707.41
2022-11-16T00:25:09.707Z,76695.06
2022-11-16T00:27:36.834Z,76699.16
2022-11-16T00:30:05.639Z,76699.16
2022-11-16T00:32:33.650Z,76682.72
2022-11-16T00:35:01.879Z,76686.84
2022-11-16T00:37:29.218Z,76682.72
2022-11-16T00:39:56.544Z,76680.66
2022-11-16T00:42:23.702Z,76686.84
2022-11-16T00:44:50.784Z,76676.56
2022-11-16T00:47:17.956Z,76678.63
2022-11-16T00:49:45.107Z,76678.63
2022-11-16T00:52:12.232Z,76670.38
2022-11-16T00:54:39.725Z,76658.06
2022-11-16T00:57:07.359Z,76666.28
2022-11-16T00:59:34.513Z,76660.13
2022-11-16T01:02:01.764Z,76658.06
2022-11-16T01:04:29.195Z,76658.06
2022-11-16T01:06:56.471Z,76656.00
2022-11-16T01:09:23.652Z,76649.84
2022-11-16T01:12:09.196Z,76653.94
2022-11-16T01:14:42.083Z,76649.84
2022-11-16T01:17:09.899Z,76645.72
2022-11-16T01:19:38.452Z,76629.28
2022-11-16T01:22:05.860Z,76637.50
2022-11-16T01:24:33.294Z,76625.16
2022-11-16T01:27:00.862Z,76621.06
2022-11-16T01:29:29.081Z,76637.50
2022-11-16T01:31:56.595Z,76629.28
2022-11-16T01:34:23.655Z,76629.28
2022-11-16T01:36:50.784Z,76621.06
2022-11-16T01:39:18.158Z,76610.78
2022-11-16T01:41:45.432Z,76610.78
2022-11-16T01:44:15.598Z,76608.72
2022-11-16T01:46:42.929Z,76612.84
2022-11-16T01:49:10.099Z,76596.38
2022-11-16T01:51:37.427Z,76600.50
2022-11-16T01:54:05.217Z,76592.28
2022-11-16T01:56:34.240Z,76575.81
2022-11-16T01:59:01.390Z,76592.28
2022-11-16T02:01:28.652Z,76588.16
2022-11-16T02:03:55.829Z,76592.28
2022-11-16T02:06:26.188Z,76584.06
2022-11-16T02:09:24.187Z,76588.16
2022-11-16T02:11:54.345Z,76584.06
2022-11-16T02:14:48.105Z,76588.16
2022-11-16T02:17:27.734Z,76584.06
2022-11-16T02:19:54.872Z,76579.94
2022-11-16T02:22:25.075Z,76575.81
2022-11-16T02:25:11.302Z,76579.94
2022-11-16T02:27:53.020Z,76584.06
2022-11-16T02:30:20.243Z,76575.81
2022-11-16T02:32:52.127Z,76571.72
2022-11-16T02:35:27.008Z,76573.78
2022-11-16T02:37:59.362Z,76571.72
2022-11-16T02:40:26.667Z,76569.66
2022-11-16T02:42:55.487Z,76557.31
2022-11-16T02:45:23.815Z,76559.38
2022-11-16T02:47:51.203Z,76559.38
2022-11-16T02:50:19.052Z,76559.38
2022-11-16T02:52:46.258Z,76551.16
2022-11-16T02:55:13.511Z,76555.28
2022-11-16T02:57:51.625Z,76555.28
2022-11-16T03:00:23.078Z,76551.16
2022-11-16T03:03:08.891Z,76538.81
2022-11-16T03:06:00.569Z,76534.72
2022-11-16T03:08:31.467Z,76530.59
2022-11-16T03:11:24.691Z,76526.50
2022-11-16T03:13:52.263Z,76526.50
2022-11-16T03:16:21.231Z,76518.28
2022-11-16T03:18:48.375Z,76512.09
2022-11-16T03:21:24.007Z,76514.16
2022-11-16T03:23:51.150Z,76510.03
2022-11-16T03:26:18.758Z,76518.28
2022-11-16T03:28:51.010Z,76510.03
2022-11-16T03:31:24.400Z,76505.94
2022-11-16T03:33:53.567Z,76514.16
2022-11-16T03:36:22.332Z,76518.28
2022-11-16T03:38:50.865Z,76514.16
2022-11-16T03:41:18.515Z,76501.81
2022-11-16T03:43:46.471Z,76510.03
2022-11-16T03:46:14.091Z,76514.16
2022-11-16T03:48:41.535Z,76501.81
2022-11-16T03:51:09.000Z,76510.03
2022-11-16T03:53:36.223Z,76505.94
2022-11-16T03:56:03.443Z,76510.03
2022-11-16T03:58:32.414Z,76503.88
2022-11-16T04:01:00.292Z,76497.72
2022-11-16T04:03:27.388Z,76497.72
2022-11-16T04:06:13.639Z,76495.66
2022-11-16T04:08:59.384Z,76493.59
2022-11-16T04:11:45.576Z,76493.59
2022-11-16T04:14:31.877Z,76479.22
2022-11-16T04:17:17.803Z,76489.50
2022-11-16T04:20:03.725Z,76468.94
2022-11-16T04:23:09.863Z,76464.81
2022-11-16T04:25:37.440Z,76464.81
2022-11-16T04:28:13.499Z,76466.88
2022-11-16T04:31:00.008Z,76442.22
2022-11-16T04:33:46.037Z,76454.53
2022-11-16T04:36:32.111Z,76444.28
2022-11-16T04:38:59.169Z,76448.38
2022-11-16T04:41:45.150Z,76452.50
2022-11-16T04:44:12.315Z,76444.28
2022-11-16T04:46:58.115Z,76444.28
2022-11-16T04:49:25.582Z,76456.59
2022-11-16T04:51:52.965Z,76452.50
2022-11-16T04:54:20.382Z,76456.59
2022-11-16T04:56:47.666Z,76452.50
2022-11-16T04:59:14.776Z,76452.50
2022-11-16T05:02:00.649Z,76448.38
2022-11-16T05:04:27.722Z,76456.59
2022-11-16T05:06:54.806Z,76458.66
2022-11-16T05:09:22.176Z,76452.50
2022-11-16T05:11:49.477Z,76456.59
2022-11-16T05:14:17.331Z,76454.53
2022-11-16T05:16:44.387Z,76448.38
2022-11-16T05:19:30.297Z,76444.28
2022-11-16T05:21:58.245Z,76452.50
2022-11-16T05:24:34.570Z,76444.28
2022-11-16T05:27:02.388Z,76436.03
2022-11-16T05:29:31.011Z,76431.94
2022-11-16T05:31:58.486Z,76427.81
2022-11-16T05:34:25.589Z,76438.09
2022-11-16T05:36:52.867Z,76423.72
2022-11-16T05:39:19.885Z,76421.66
2022-11-16T05:41:47.032Z,76419.59
2022-11-16T05:44:14.318Z,76425.78
2022-11-16T05:46:41.541Z,76429.88
2022-11-16T05:49:08.898Z,76423.72
2022-11-16T05:51:36.291Z,76419.59
2022-11-16T05:54:04.866Z,76411.38
2022-11-16T05:56:33.278Z,76411.38
2022-11-16T05:59:00.474Z,76415.50
2022-11-16T06:01:27.542Z,76411.38
2022-11-16T06:03:54.581Z,76403.16
2022-11-16T06:06:24.175Z,76407.28
2022-11-16T06:08:51.468Z,76401.09
2022-11-16T06:11:18.533Z,76397.00
2022-11-16T06:13:46.603Z,76399.03
2022-11-16T06:16:13.759Z,76386.72
2022-11-16T06:18:41.360Z,76382.59
2022-11-16T06:21:08.500Z,76378.50
2022-11-16T06:23:35.729Z,76370.25
2022-11-16T06:26:02.862Z,76370.25
2022-11-16T06:28:30.244Z,76370.25
2022-11-16T06:30:57.407Z,76366.16
2022-11-16T06:33:24.522Z,76366.16
2022-11-16T06:35:52.148Z,76362.03
2022-11-16T06:38:19.426Z,76357.94
2022-11-16T06:40:49.599Z,76341.50
2022-11-16T06:43:16.842Z,76345.59
2022-11-16T06:45:44.062Z,76345.59
2022-11-16T06:48:11.162Z,76341.50
2022-11-16T06:50:38.223Z,76335.31
2022-11-16T06:53:05.419Z,76337.38
2022-11-16T06:55:32.560Z,76335.31
2022-11-16T06:57:59.659Z,76329.16
2022-11-16T07:00:27.828Z,76327.09
2022-11-16T07:02:54.888Z,76316.81
2022-11-16T07:05:22.122Z,76323.00
2022-11-16T07:07:53.502Z,76314.78
2022-11-16T07:10:20.601Z,76325.03
2022-11-16T07:12:48.271Z,76320.94
2022-11-16T07:15:15.484Z,76314.78
2022-11-16T07:17:42.968Z,76310.66
2022-11-16T07:20:12.035Z,76312.72
2022-11-16T07:22:40.767Z,76310.66
2022-11-16T07:25:08.204Z,76312.72
2022-11-16T07:27:38.022Z,76300.38
2022-11-16T07:30:05.704Z,76300.38
2022-11-16T07:32:32.886Z,76288.03
2022-11-16T07:34:59.984Z,76281.88
2022-11-16T07:37:27.058Z,76279.81
2022-11-16T07:39:54.345Z,76275.72
2022-11-16T07:42:21.449Z,76261.31
2022-11-16T07:44:48.692Z,76257.22
2022-11-16T07:47:15.748Z,76246.94
2022-11-16T07:49:42.849Z,76238.72
2022-11-16T07:52:10.311Z,76238.72
2022-11-16T07:54:37.421Z,76242.81
2022-11-16T07:57:15.594Z,76236.66
2022-11-16T07:59:42.611Z,76234.59
2022-11-16T08:02:10.984Z,76218.16
2022-11-16T08:04:39.170Z,76212.00
2022-11-16T08:07:06.877Z,76216.09
2022-11-16T08:09:34.651Z,76218.16
2022-11-16T08:12:02.404Z,76224.31
2022-11-16T08:14:29.544Z,76209.94
2022-11-16T08:16:56.790Z,76209.94
2022-11-16T08:19:23.828Z,76218.16
2022-11-16T08:21:51.160Z,76218.16
2022-11-16T08:24:18.442Z,76212.00
2022-11-16T08:26:45.491Z,76209.94
2022-11-16T08:29:13.041Z,76203.78
2022-11-16T08:31:40.128Z,76201.72
2022-11-16T08:34:07.153Z,76189.38
2022-11-16T08:36:35.639Z,76181.16
2022-11-16T08:39:02.722Z,76177.06
2022-11-16T08:41:31.217Z,76152.38
2022-11-16T08:43:59.356Z,76152.38
2022-11-16T08:46:26.459Z,76140.06
2022-11-16T08:48:57.155Z,76123.63
2022-11-16T08:51:24.543Z,76133.88
2022-11-16T08:53:55.304Z,76127.72
2022-11-16T08:56:22.339Z,76127.72
2022-11-16T08:58:57.884Z,76131.84
2022-11-16T09:01:26.522Z,76123.63
2022-11-16T09:03:54.130Z,76111.28
2022-11-16T09:06:21.474Z,76107.16
2022-11-16T09:08:48.599Z,76107.16
2022-11-16T09:11:18.330Z,76111.28
2022-11-16T09:13:45.638Z,76115.38
2022-11-16T09:16:16.665Z,76107.16
2022-11-16T09:18:45.616Z,76115.38
2022-11-16T09:21:12.849Z,76111.28
2022-11-16T09:23:40.128Z,76101.00
2022-11-16T09:26:07.242Z,76103.06
2022-11-16T09:28:34.944Z,76094.84
2022-11-16T09:31:02.628Z,76103.06
2022-11-16T09:33:30.344Z,76082.50
2022-11-16T09:36:01.558Z,76082.50
2022-11-16T09:38:40.526Z,76066.06
2022-11-16T09:41:16.089Z,76045.50
2022-11-16T09:43:51.052Z,76041.41
2022-11-16T09:46:20.975Z,76041.41
2022-11-16T09:48:48.480Z,76033.19
2022-11-16T09:51:15.754Z,76018.78
2022-11-16T09:53:47.645Z,76006.47
2022-11-16T09:56:27.266Z,75996.19
2022-11-16T09:59:15.109Z,75987.97
2022-11-16T10:01:49.070Z,75990.00
2022-11-16T10:04:37.101Z,75992.06
2022-11-16T10:07:13.604Z,75992.06
2022-11-16T10:09:40.744Z,75992.06
2022-11-16T10:12:14.138Z,75983.84
2022-11-16T10:14:44.863Z,75944.78
2022-11-16T10:17:21.142Z,75940.69
2022-11-16T10:20:05.016Z,75930.41
2022-11-16T10:22:38.937Z,75930.41
2022-11-16T10:25:15.119Z,75922.19
2022-11-16T10:27:42.700Z,75913.97
2022-11-16T10:30:14.911Z,75909.84
2022-11-16T10:32:54.233Z,75913.97
2022-11-16T10:35:21.723Z,75926.28
2022-11-16T10:37:49.224Z,75934.53
2022-11-16T10:40:17.532Z,75930.41
2022-11-16T10:42:46.511Z,75930.41
2022-11-16T10:45:16.185Z,75928.34
2022-11-16T10:47:50.238Z,75934.53
2022-11-16T10:50:36.122Z,75924.25
2022-11-16T10:53:03.225Z,75926.28
2022-11-16T10:55:30.518Z,75922.19
2022-11-16T10:57:57.812Z,75922.19
2022-11-16T11:00:44.725Z,75913.97
2022-11-16T11:03:12.152Z,75901.63
2022-11-16T11:05:57.376Z,75895.47
2022-11-16T11:08:34.114Z,75881.09
2022-11-16T11:11:03.322Z,75864.63
2022-11-16T11:13:30.586Z,75872.84
2022-11-16T11:16:12.877Z,75868.75
2022-11-16T11:18:40.478Z,75860.53
2022-11-16T11:21:20.947Z,75860.53
2022-11-16T11:23:52.431Z,75860.53
2022-11-16T11:26:25.688Z,75854.38
2022-11-16T11:28:52.723Z,75856.41
2022-11-16T11:31:26.022Z,75848.19
2022-11-16T11:33:53.791Z,75856.41
2022-11-16T11:36:21.773Z,75856.41
2022-11-16T11:39:00.200Z,75856.41
2022-11-16T11:41:39.375Z,75862.59
2022-11-16T11:44:15.523Z,75868.75
2022-11-16T11:49:33.878Z,75846.13
2022-11-16T11:52:11.808Z,75846.13
2022-11-16T11:54:45.700Z,75852.31
2022-11-16T11:57:15.719Z,75833.81
2022-11-16T11:59:42.788Z,75829.69
2022-11-16T12:02:16.274Z,75819.44
2022-11-16T12:04:46.347Z,75811.22
2022-11-16T12:07:16.768Z,75811.22
2022-11-16T12:09:49.494Z,75815.31
2022-11-16T12:12:25.796Z,75815.31
2022-11-16T12:15:03.486Z,75815.31
2022-11-16T12:17:43.053Z,75809.16
2022-11-16T12:20:19.470Z,75802.97
2022-11-16T12:22:53.191Z,75807.09
2022-11-16T12:25:20.555Z,75811.22
2022-11-16T12:28:08.651Z,75811.22
2022-11-16T12:30:43.909Z,75807.09
2022-11-16T12:33:17.319Z,75811.22
2022-11-16T12:35:44.570Z,75813.25
2022-11-16T12:38:14.364Z,75817.38
2022-11-16T12:40:41.660Z,75811.22
2022-11-16T12:43:11.467Z,75819.44
2022-11-16T12:45:41.273Z,75811.22
2022-11-16T12:48:28.644Z,75794.75
2022-11-16T12:51:02.012Z,75802.97
2022-11-16T12:53:32.318Z,75809.16
2022-11-16T12:56:22.619Z,75817.38
2022-11-16T12:59:08.525Z,75823.53
2022-11-16T13:01:43.327Z,75813.25
2022-11-16T13:04:18.873Z,75811.22
2022-11-16T13:06:47.693Z,75811.22
2022-11-16T13:09:25.439Z,75811.22
2022-11-16T13:11:54.154Z,75807.09
2022-11-16T13:14:23.866Z,75805.03
2022-11-16T13:16:51.178Z,75800.94
2022-11-16T13:19:18.901Z,75794.75
2022-11-16T13:21:52.949Z,75790.66
2022-11-16T13:24:37.296Z,75798.88
2022-11-16T13:27:05.504Z,75798.88
2022-11-16T13:29:34.565Z,75802.97
2022-11-16T13:32:05.692Z,75802.97
2022-11-16T13:34:33.103Z,75807.09
2022-11-16T13:37:00.118Z,75792.72
2022-11-16T13:40:04.386Z,75794.75
2022-11-16T13:42:32.191Z,75786.53
2022-11-16T13:45:07.143Z,75778.31
2022-11-16T13:47:34.560Z,75774.22
2022-11-16T13:50:02.551Z,75766.00
2022-11-16T13:53:28.361Z,75755.72
2022-11-16T13:55:31.474Z,75770.09
2022-11-16T13:57:59.067Z,75774.22
2022-11-16T14:00:33.574Z,75770.09
2022-11-16T14:03:16.085Z,75784.50
2022-11-16T14:05:43.997Z,75782.44
2022-11-16T14:08:24.152Z,75772.16
2022-11-16T14:10:51.332Z,75759.81
2022-11-16T14:13:42.295Z,75770.09
2022-11-16T14:16:15.258Z,75778.31
2022-11-16T14:18:43.142Z,75774.22
2022-11-16T14:21:19.461Z,75772.16
2022-11-16T14:23:49.903Z,75782.44
2022-11-16T14:26:35.043Z,75786.53
2022-11-16T14:29:02.060Z,75792.72
2022-11-16T14:31:29.774Z,75798.88
2022-11-16T14:33:57.388Z,75796.81
2022-11-16T14:36:41.816Z,75794.75
2022-11-16T14:39:27.613Z,75805.03
2022-11-16T14:41:55.237Z,75817.38
2022-11-16T14:44:22.836Z,75811.22
2022-11-16T14:46:50.002Z,75811.22
2022-11-16T14:49:18.542Z,75802.97
2022-11-16T14:51:52.943Z,75811.22
2022-11-16T14:54:21.901Z,75811.22
2022-11-16T14:57:00.937Z,75811.22
2022-11-16T14:59:28.348Z,75811.22
2022-11-16T15:01:55.776Z,75815.31
2022-11-16T15:04:23.989Z,75807.09
2022-11-16T15:06:52.276Z,75811.22
2022-11-16T15:09:22.322Z,75807.09
2022-11-16T15:12:08.262Z,75811.22
2022-11-16T15:14:38.135Z,75807.09
2022-11-16T15:17:09.875Z,75811.22
2022-11-16T15:19:38.248Z,75811.22
2022-11-16T15:22:12.666Z,75815.31
2022-11-16T15:24:39.715Z,75817.38
2022-11-16T15:27:06.716Z,75813.25
2022-11-16T15:29:33.770Z,75811.22
2022-11-16T15:32:01.192Z,75813.25
2022-11-16T15:34:28.387Z,75817.38
2022-11-16T15:36:55.588Z,75811.22
2022-11-16T15:39:23.419Z,75807.09
2022-11-16T15:41:50.827Z,75794.75
2022-11-16T15:44:19.440Z,75794.75
2022-11-16T15:46:50.237Z,75786.53
2022-11-16T15:49:23.566Z,75788.59
2022-11-16T15:51:50.607Z,75790.66
2022-11-16T15:54:53.804Z,75802.97
2022-11-16T15:57:22.081Z,75807.09
2022-11-16T15:59:54.652Z,75811.22
2022-11-16T16:02:23.131Z,75811.22
2022-11-16T16:04:51.081Z,75807.09
2022-11-16T16:07:39.629Z,75798.88
2022-11-16T16:10:13.523Z,75802.97
2022-11-16T16:12:49.674Z,75798.88
2022-11-16T16:15:26.022Z,75794.75
2022-11-16T16:17:53.511Z,75784.50
2022-11-16T16:20:21.219Z,75786.53
2022-11-16T16:22:48.523Z,75786.53
2022-11-16T16:25:50.692Z,75784.50
2022-11-16T16:28:17.962Z,75786.53
2022-11-16T16:30:45.943Z,75782.44
2022-11-16T16:33:17.487Z,75782.44
2022-11-16T16:35:45.620Z,75786.53
2022-11-16T16:38:12.669Z,75778.31
2022-11-16T16:40:39.821Z,75778.31
2022-11-16T16:43:06.858Z,75766.00
2022-11-16T16:45:38.787Z,75757.78
2022-11-16T16:48:06.122Z,75766.00
2022-11-16T16:50:33.256Z,75778.31
2022-11-16T16:53:00.470Z,75778.31
2022-11-16T16:55:28.375Z,75772.16
2022-11-16T16:57:58.262Z,75782.44
2022-11-16T17:00:25.831Z,75782.44
2022-11-16T17:03:12.823Z,75778.31
2022-11-16T17:05:39.901Z,75774.22
2022-11-16T17:08:06.963Z,75778.31
2022-11-16T17:10:34.351Z,75778.31
2022-11-16T17:13:03.201Z,75778.31
2022-11-16T17:15:31.071Z,75774.22
2022-11-16T17:17:58.944Z,75776.25
2022-11-16T17:20:26.392Z,75784.50
2022-11-16T17:22:53.847Z,75774.22
2022-11-16T17:25:22.226Z,75770.09
2022-11-16T17:27:49.691Z,75770.09
2022-11-16T17:30:16.783Z,75770.09
2022-11-16T17:32:43.903Z,75774.22
2022-11-16T17:35:11.013Z,75772.16
2022-11-16T17:37:38.100Z,75766.00
2022-11-16T17:40:05.809Z,75766.00
2022-11-16T17:42:35.564Z,75766.00
2022-11-16T17:45:03.035Z,75766.00
2022-11-16T17:47:35.775Z,75766.00
2022-11-16T17:50:04.271Z,75763.94
2022-11-16T17:52:31.924Z,75768.03
2022-11-16T17:54:59.165Z,75768.03
2022-11-16T17:57:26.326Z,75770.09
2022-11-16T17:59:53.557Z,75766.00
2022-11-16T18:02:20.835Z,75768.03
2022-11-16T18:04:51.099Z,75755.72
2022-11-16T18:07:18.832Z,75757.78
2022-11-16T18:09:45.947Z,75757.78
2022-11-16T18:12:13.054Z,75761.88
2022-11-16T18:14:40.141Z,75757.78
2022-11-16T18:17:07.257Z,75753.66
2022-11-16T18:19:34.356Z,75751.59
2022-11-16T18:22:01.394Z,75749.56
2022-11-16T18:24:28.487Z,75755.72
2022-11-16T18:26:55.839Z,75761.88
2022-11-16T18:29:23.038Z,75753.66
2022-11-16T18:31:50.227Z,75751.59
2022-11-16T18:34:17.771Z,75749.56
2022-11-16T18:36:46.412Z,75743.38
2022-11-16T18:39:13.457Z,75745.44
2022-11-16T18:41:44.097Z,75749.56
2022-11-16T18:44:11.337Z,75745.44
2022-11-16T18:46:39.076Z,75745.44
2022-11-16T18:49:06.124Z,75745.44
2022-11-16T18:51:33.223Z,75745.44
2022-11-16T18:54:00.302Z,75745.44
2022-11-16T18:56:27.412Z,75745.44
2022-11-16T18:58:54.836Z,75741.31
2022-11-16T19:01:23.028Z,75737.22
2022-11-16T19:03:50.866Z,75733.09
2022-11-16T19:06:19.603Z,75729.00
2022-11-16T19:08:53.803Z,75733.09
2022-11-16T19:11:22.819Z,75729.00
2022-11-16T19:13:55.289Z,75729.00
2022-11-16T19:16:24.047Z,75726.94
2022-11-16T19:18:51.250Z,75724.88
2022-11-16T19:21:18.678Z,75724.88
2022-11-16T19:23:49.469Z,75726.94
2022-11-16T19:26:17.071Z,75720.78
2022-11-16T19:28:48.127Z,75726.94
2022-11-16T19:31:23.665Z,75729.00
2022-11-16T19:33:55.138Z,75726.94
2022-11-16T19:36:22.529Z,75724.88
2022-11-16T19:38:49.689Z,75720.78
2022-11-16T19:41:17.016Z,75729.00
2022-11-16T19:43:44.501Z,75716.66
2022-11-16T19:46:12.214Z,75720.78
2022-11-16T19:48:39.383Z,75729.00
2022-11-16T19:51:06.894Z,75722.84
2022-11-16T19:53:35.458Z,75729.00
2022-11-16T19:56:03.024Z,75729.00
2022-11-16T19:58:31.032Z,75724.88
2022-11-16T20:01:04.742Z,75720.78
2022-11-16T20:03:34.605Z,75718.72
2022-11-16T20:06:14.928Z,75716.66
2022-11-16T20:08:42.536Z,75724.88
2022-11-16T20:11:11.510Z,75716.66
2022-11-16T20:13:39.465Z,75714.59
2022-11-16T20:16:07.306Z,75716.66
2022-11-16T20:18:34.374Z,75708.44
2022-11-16T20:21:02.599Z,75708.44
2022-11-16T20:23:29.834Z,75704.34
2022-11-16T20:25:56.907Z,75708.44
2022-11-16T20:28:24.011Z,75702.28
2022-11-16T20:30:51.442Z,75696.13
2022-11-16T20:33:18.583Z,75702.28
2022-11-16T20:35:45.659Z,75700.22
2022-11-16T20:38:12.699Z,75700.22
2022-11-16T20:40:39.844Z,75700.22
2022-11-16T20:43:09.099Z,75700.22
2022-11-16T20:45:36.335Z,75696.13
2022-11-16T20:48:04.317Z,75708.44
2022-11-16T20:50:31.740Z,75708.44
2022-11-16T20:52:58.851Z,75700.22
2022-11-16T20:55:25.910Z,75700.22
2022-11-16T20:57:55.206Z,75700.22
2022-11-16T21:00:22.312Z,75696.13
2022-11-16T21:02:49.432Z,75685.84
2022-11-16T21:05:16.455Z,75687.91
2022-11-16T21:07:43.977Z,75687.91
2022-11-16T21:10:20.193Z,75696.13
2022-11-16T21:13:05.995Z,75685.84
2022-11-16T21:15:34.371Z,75687.91
2022-11-16T21:18:01.458Z,75687.91
2022-11-16T21:20:28.868Z,75683.78
2022-11-16T21:22:56.070Z,75687.91
2022-11-16T21:25:23.156Z,75685.84
2022-11-16T21:27:50.422Z,75685.84
2022-11-16T21:30:17.862Z,75696.13
2022-11-16T21:32:44.999Z,75692.00
2022-11-16T21:35:12.167Z,75692.00
2022-11-16T21:37:39.904Z,75687.91
2022-11-16T21:40:07.391Z,75689.94
2022-11-16T21:42:35.347Z,75692.00
2022-11-16T21:45:02.742Z,75694.06
2022-11-16T21:47:29.954Z,75698.16
2022-11-16T21:52:49.255Z,75720.78
2022-11-16T21:55:16.271Z,75720.78
2022-11-16T21:57:43.581Z,75716.66
2022-11-16T22:00:11.041Z,75716.66
2022-11-16T22:02:38.288Z,75700.22
2022-11-16T22:05:24.809Z,75704.34
2022-11-16T22:07:52.126Z,75696.13
2022-11-16T22:10:19.785Z,75685.84
2022-11-16T22:12:47.041Z,75679.69
2022-11-16T22:15:14.219Z,75683.78
2022-11-16T22:17:44.324Z,75683.78
2022-11-16T22:20:11.805Z,75675.56
2022-11-16T22:22:39.075Z,75675.56
2022-11-16T22:25:06.547Z,75669.41
2022-11-16T22:27:38.568Z,75663.22
2022-11-16T22:30:19.458Z,75663.22
2022-11-16T22:32:46.954Z,75646.78
2022-11-16T22:35:14.249Z,75646.78
2022-11-16T22:37:42.289Z,75648.84
2022-11-16T22:40:13.609Z,75650.91
2022-11-16T22:42:43.760Z,75650.91
2022-11-16T22:45:10.924Z,75644.75
2022-11-16T22:47:38.947Z,75652.97
2022-11-16T22:50:06.160Z,75650.91
2022-11-16T22:52:34.371Z,75642.69
2022-11-16T22:55:01.733Z,75646.78
2022-11-16T22:57:28.977Z,75630.34
2022-11-16T22:59:56.371Z,75634.47
2022-11-16T23:02:23.408Z,75642.69
2022-11-16T23:04:50.441Z,75640.63
2022-11-16T23:07:17.714Z,75642.69
2022-11-16T23:09:46.353Z,75646.78
2022-11-16T23:12:32.218Z,75638.56
2022-11-16T23:15:18.552Z,75634.47
2022-11-16T23:17:45.687Z,75622.13
2022-11-16T23:20:31.383Z,75638.56
2022-11-16T23:23:17.269Z,75626.25
2022-11-16T23:26:03.473Z,75605.69
2022-11-16T23:28:30.830Z,75603.63
2022-11-16T23:30:57.864Z,75597.47
2022-11-16T23:33:43.891Z,75603.63
2022-11-16T23:36:11.814Z,75597.47
2022-11-16T23:38:39.352Z,75593.34
2022-11-16T23:41:25.226Z,75585.13
2022-11-16T23:43:58.320Z,75597.47
2022-11-16T23:46:29.334Z,75585.13
2022-11-16T23:48:56.401Z,75576.91
2022-11-16T23:51:23.746Z,75581.03
2022-11-16T23:53:51.759Z,75568.69
2022-11-16T23:56:19.309Z,75560.47
2022-11-16T23:58:46.871Z,75548.16
